X  Close Metar Aviation Weather Data        LDPL Pula
Temperature
17°C Temperature
16°C Dewpoint
94% Humidity



Wind
4 M/S
8 MPH
13 KM/H
7 KTS



60°
ENE
Current Conditions

Mostly Clear with Light Rain Mostly Clear , Light Rain
Pressure 1007 (hPa) - 29.73 (inHg)
Visibility 6 (mile) - 10 (km)
Airport
Airport-code LDPL

Location: Pula
Distance: 39 (km)

Metar:
METAR LDPL 210030Z 06007KT 9999 -RA FEW050 17/16 Q1007

Time: 21-05-2024 02:30 CEST